sensor_id;sensor_type;location;lat;lon;timestamp;P1;durP1;ratioP1;P2;durP2;ratioP2
78561;SDS011;68963;52.138;5.446;2023-04-19T00:01:26;13.52;;;7.00;;
78561;SDS011;68963;52.138;5.446;2023-04-19T00:03:53;14.10;;;7.60;;
78561;SDS011;68963;52.138;5.446;2023-04-19T00:06:21;17.13;;;8.35;;
78561;SDS011;68963;52.138;5.446;2023-04-19T00:08:48;16.67;;;7.97;;
78561;SDS011;68963;52.138;5.446;2023-04-19T00:11:14;13.75;;;7.70;;
78561;SDS011;68963;52.138;5.446;2023-04-19T00:13:41;15.43;;;7.97;;
78561;SDS011;68963;52.138;5.446;2023-04-19T00:16:07;15.20;;;7.97;;
78561;SDS011;68963;52.138;5.446;2023-04-19T00:18:34;16.83;;;8.85;;
78561;SDS011;68963;52.138;5.446;2023-04-19T00:21:01;15.13;;;7.78;;
78561;SDS011;68963;52.138;5.446;2023-04-19T00:23:28;14.68;;;8.38;;
78561;SDS011;68963;52.138;5.446;2023-04-19T00:25:54;15.57;;;8.25;;
78561;SDS011;68963;52.138;5.446;2023-04-19T00:28:21;15.32;;;7.70;;
78561;SDS011;68963;52.138;5.446;2023-04-19T00:30:47;14.35;;;7.72;;
78561;SDS011;68963;52.138;5.446;2023-04-19T00:33:14;16.85;;;8.07;;
78561;SDS011;68963;52.138;5.446;2023-04-19T00:35:40;17.38;;;8.55;;
78561;SDS011;68963;52.138;5.446;2023-04-19T00:38:07;15.77;;;7.90;;
78561;SDS011;68963;52.138;5.446;2023-04-19T00:40:34;16.60;;;8.13;;
78561;SDS011;68963;52.138;5.446;2023-04-19T00:43:01;15.95;;;8.10;;
78561;SDS011;68963;52.138;5.446;2023-04-19T00:45:28;15.02;;;8.43;;
78561;SDS011;68963;52.138;5.446;2023-04-19T00:47:54;14.88;;;8.27;;
78561;SDS011;68963;52.138;5.446;2023-04-19T00:50:21;16.75;;;8.35;;
78561;SDS011;68963;52.138;5.446;2023-04-19T00:52:48;15.70;;;8.25;;
78561;SDS011;68963;52.138;5.446;2023-04-19T00:55:14;16.77;;;8.60;;
78561;SDS011;68963;52.138;5.446;2023-04-19T00:57:41;16.95;;;8.20;;
78561;SDS011;68963;52.138;5.446;2023-04-19T01:00:08;16.48;;;8.70;;
78561;SDS011;68963;52.138;5.446;2023-04-19T01:02:35;16.83;;;8.23;;
78561;SDS011;68963;52.138;5.446;2023-04-19T01:05:02;16.02;;;8.93;;
78561;SDS011;68963;52.138;5.446;2023-04-19T01:07:28;17.90;;;8.82;;
78561;SDS011;68963;52.138;5.446;2023-04-19T01:09:55;16.90;;;8.60;;
78561;SDS011;68963;52.138;5.446;2023-04-19T01:12:21;16.85;;;8.98;;
78561;SDS011;68963;52.138;5.446;2023-04-19T01:14:48;18.48;;;9.05;;
78561;SDS011;68963;52.138;5.446;2023-04-19T01:17:15;16.55;;;9.02;;
78561;SDS011;68963;52.138;5.446;2023-04-19T01:19:44;18.30;;;9.50;;
78561;SDS011;68963;52.138;5.446;2023-04-19T01:22:15;20.25;;;9.32;;
78561;SDS011;68963;52.138;5.446;2023-04-19T01:24:44;18.50;;;9.40;;
78561;SDS011;68963;52.138;5.446;2023-04-19T01:27:10;19.70;;;9.00;;
78561;SDS011;68963;52.138;5.446;2023-04-19T01:29:39;18.00;;;8.88;;
78561;SDS011;68963;52.138;5.446;2023-04-19T01:32:06;18.85;;;9.65;;
78561;SDS011;68963;52.138;5.446;2023-04-19T01:34:33;18.88;;;9.73;;
78561;SDS011;68963;52.138;5.446;2023-04-19T01:36:59;17.02;;;9.57;;
78561;SDS011;68963;52.138;5.446;2023-04-19T01:39:26;17.20;;;9.45;;
78561;SDS011;68963;52.138;5.446;2023-04-19T01:41:52;17.30;;;9.52;;
78561;SDS011;68963;52.138;5.446;2023-04-19T01:44:19;16.58;;;9.07;;
78561;SDS011;68963;52.138;5.446;2023-04-19T01:46:45;15.75;;;9.20;;
78561;SDS011;68963;52.138;5.446;2023-04-19T01:49:12;15.65;;;8.80;;
78561;SDS011;68963;52.138;5.446;2023-04-19T01:51:38;16.00;;;9.27;;
78561;SDS011;68963;52.138;5.446;2023-04-19T01:54:05;18.15;;;8.93;;
78561;SDS011;68963;52.138;5.446;2023-04-19T01:56:31;18.48;;;8.70;;
78561;SDS011;68963;52.138;5.446;2023-04-19T01:58:58;17.00;;;9.55;;
78561;SDS011;68963;52.138;5.446;2023-04-19T02:01:24;18.05;;;9.27;;
78561;SDS011;68963;52.138;5.446;2023-04-19T02:03:51;17.50;;;9.32;;
78561;SDS011;68963;52.138;5.446;2023-04-19T02:06:18;17.98;;;9.30;;
78561;SDS011;68963;52.138;5.446;2023-04-19T02:08:44;19.85;;;10.18;;
78561;SDS011;68963;52.138;5.446;2023-04-19T02:11:12;16.95;;;9.65;;
78561;SDS011;68963;52.138;5.446;2023-04-19T02:13:41;18.48;;;9.82;;
78561;SDS011;68963;52.138;5.446;2023-04-19T02:16:08;19.90;;;10.05;;
78561;SDS011;68963;52.138;5.446;2023-04-19T02:18:36;17.58;;;9.40;;
78561;SDS011;68963;52.138;5.446;2023-04-19T02:21:04;17.17;;;9.27;;
78561;SDS011;68963;52.138;5.446;2023-04-19T02:23:31;17.52;;;9.80;;
78561;SDS011;68963;52.138;5.446;2023-04-19T02:25:58;16.92;;;9.85;;
78561;SDS011;68963;52.138;5.446;2023-04-19T02:28:26;18.55;;;10.18;;
78561;SDS011;68963;52.138;5.446;2023-04-19T02:30:53;18.55;;;9.68;;
78561;SDS011;68963;52.138;5.446;2023-04-19T02:33:20;17.20;;;9.52;;
78561;SDS011;68963;52.138;5.446;2023-04-19T02:35:47;18.90;;;9.68;;
78561;SDS011;68963;52.138;5.446;2023-04-19T02:38:14;19.77;;;9.98;;
78561;SDS011;68963;52.138;5.446;2023-04-19T02:40:41;17.25;;;9.68;;
78561;SDS011;68963;52.138;5.446;2023-04-19T02:43:08;17.90;;;9.27;;
78561;SDS011;68963;52.138;5.446;2023-04-19T02:45:34;19.38;;;9.00;;
78561;SDS011;68963;52.138;5.446;2023-04-19T02:48:01;16.63;;;9.25;;
78561;SDS011;68963;52.138;5.446;2023-04-19T02:50:28;16.42;;;8.93;;
78561;SDS011;68963;52.138;5.446;2023-04-19T02:52:54;19.02;;;10.50;;
78561;SDS011;68963;52.138;5.446;2023-04-19T02:55:21;18.38;;;9.50;;
78561;SDS011;68963;52.138;5.446;2023-04-19T02:57:47;20.02;;;9.45;;
78561;SDS011;68963;52.138;5.446;2023-04-19T03:00:14;18.85;;;9.10;;
78561;SDS011;68963;52.138;5.446;2023-04-19T03:02:42;17.58;;;9.25;;
78561;SDS011;68963;52.138;5.446;2023-04-19T03:05:09;17.45;;;9.35;;
78561;SDS011;68963;52.138;5.446;2023-04-19T03:07:35;18.02;;;9.95;;
78561;SDS011;68963;52.138;5.446;2023-04-19T03:10:02;18.38;;;9.60;;
78561;SDS011;68963;52.138;5.446;2023-04-19T03:12:29;17.38;;;9.05;;
78561;SDS011;68963;52.138;5.446;2023-04-19T03:14:55;17.15;;;8.98;;
78561;SDS011;68963;52.138;5.446;2023-04-19T03:17:22;17.17;;;8.98;;
78561;SDS011;68963;52.138;5.446;2023-04-19T03:19:48;15.88;;;8.73;;
78561;SDS011;68963;52.138;5.446;2023-04-19T03:22:15;16.63;;;9.13;;
78561;SDS011;68963;52.138;5.446;2023-04-19T03:24:41;16.73;;;9.35;;
78561;SDS011;68963;52.138;5.446;2023-04-19T03:27:08;16.90;;;9.27;;
78561;SDS011;68963;52.138;5.446;2023-04-19T03:29:34;17.17;;;8.05;;
78561;SDS011;68963;52.138;5.446;2023-04-19T03:32:01;16.35;;;8.68;;
78561;SDS011;68963;52.138;5.446;2023-04-19T03:34:27;15.68;;;8.38;;
78561;SDS011;68963;52.138;5.446;2023-04-19T03:36:54;16.60;;;8.35;;
78561;SDS011;68963;52.138;5.446;2023-04-19T03:39:21;17.60;;;8.48;;
78561;SDS011;68963;52.138;5.446;2023-04-19T03:41:47;17.27;;;8.57;;
78561;SDS011;68963;52.138;5.446;2023-04-19T03:44:13;17.52;;;7.85;;
78561;SDS011;68963;52.138;5.446;2023-04-19T03:46:40;16.33;;;8.23;;
78561;SDS011;68963;52.138;5.446;2023-04-19T03:49:07;17.17;;;8.73;;
78561;SDS011;68963;52.138;5.446;2023-04-19T03:51:33;16.80;;;8.05;;
78561;SDS011;68963;52.138;5.446;2023-04-19T03:54:00;14.45;;;7.95;;
78561;SDS011;68963;52.138;5.446;2023-04-19T03:56:26;14.98;;;8.27;;
78561;SDS011;68963;52.138;5.446;2023-04-19T03:58:53;14.68;;;7.80;;
78561;SDS011;68963;52.138;5.446;2023-04-19T04:01:20;17.58;;;7.88;;
78561;SDS011;68963;52.138;5.446;2023-04-19T04:03:47;14.85;;;8.40;;
78561;SDS011;68963;52.138;5.446;2023-04-19T04:06:14;16.60;;;8.30;;
78561;SDS011;68963;52.138;5.446;2023-04-19T04:08:41;16.88;;;8.55;;
78561;SDS011;68963;52.138;5.446;2023-04-19T04:11:07;15.13;;;8.32;;
78561;SDS011;68963;52.138;5.446;2023-04-19T04:13:34;16.67;;;8.35;;
78561;SDS011;68963;52.138;5.446;2023-04-19T04:16:01;16.40;;;8.07;;
78561;SDS011;68963;52.138;5.446;2023-04-19T04:18:27;16.60;;;8.32;;
78561;SDS011;68963;52.138;5.446;2023-04-19T04:20:54;15.20;;;7.72;;
78561;SDS011;68963;52.138;5.446;2023-04-19T04:23:20;14.18;;;7.28;;
78561;SDS011;68963;52.138;5.446;2023-04-19T04:25:54;15.93;;;8.25;;
78561;SDS011;68963;52.138;5.446;2023-04-19T04:28:23;17.30;;;8.25;;
78561;SDS011;68963;52.138;5.446;2023-04-19T04:30:49;16.00;;;7.63;;
78561;SDS011;68963;52.138;5.446;2023-04-19T04:33:17;14.80;;;8.27;;
78561;SDS011;68963;52.138;5.446;2023-04-19T04:35:43;15.38;;;8.30;;
78561;SDS011;68963;52.138;5.446;2023-04-19T04:38:10;16.17;;;8.43;;
78561;SDS011;68963;52.138;5.446;2023-04-19T04:40:50;16.63;;;7.60;;
78561;SDS011;68963;52.138;5.446;2023-04-19T04:43:21;14.50;;;7.72;;
78561;SDS011;68963;52.138;5.446;2023-04-19T04:45:54;15.25;;;7.05;;
78561;SDS011;68963;52.138;5.446;2023-04-19T04:48:23;14.18;;;7.22;;
78561;SDS011;68963;52.138;5.446;2023-04-19T04:50:50;13.68;;;7.72;;
78561;SDS011;68963;52.138;5.446;2023-04-19T04:53:16;16.33;;;8.00;;
78561;SDS011;68963;52.138;5.446;2023-04-19T04:55:43;14.50;;;7.57;;
78561;SDS011;68963;52.138;5.446;2023-04-19T04:58:09;14.45;;;6.90;;
78561;SDS011;68963;52.138;5.446;2023-04-19T05:00:36;16.60;;;7.60;;
78561;SDS011;68963;52.138;5.446;2023-04-19T05:03:02;13.00;;;7.28;;
78561;SDS011;68963;52.138;5.446;2023-04-19T05:05:29;13.57;;;7.60;;
78561;SDS011;68963;52.138;5.446;2023-04-19T05:07:55;15.55;;;7.75;;
78561;SDS011;68963;52.138;5.446;2023-04-19T05:10:22;14.55;;;7.20;;
78561;SDS011;68963;52.138;5.446;2023-04-19T05:12:48;13.25;;;7.10;;
78561;SDS011;68963;52.138;5.446;2023-04-19T05:15:15;14.20;;;7.32;;
78561;SDS011;68963;52.138;5.446;2023-04-19T05:17:41;13.25;;;6.93;;
78561;SDS011;68963;52.138;5.446;2023-04-19T05:20:08;15.05;;;7.55;;
78561;SDS011;68963;52.138;5.446;2023-04-19T05:22:35;14.63;;;7.47;;
78561;SDS011;68963;52.138;5.446;2023-04-19T05:25:02;13.77;;;7.10;;
78561;SDS011;68963;52.138;5.446;2023-04-19T05:27:29;13.93;;;7.70;;
78561;SDS011;68963;52.138;5.446;2023-04-19T05:29:56;13.90;;;6.88;;
78561;SDS011;68963;52.138;5.446;2023-04-19T05:32:22;11.70;;;6.53;;
78561;SDS011;68963;52.138;5.446;2023-04-19T05:34:49;13.63;;;6.60;;
78561;SDS011;68963;52.138;5.446;2023-04-19T05:37:15;13.07;;;6.70;;
78561;SDS011;68963;52.138;5.446;2023-04-19T05:39:42;16.15;;;7.00;;
78561;SDS011;68963;52.138;5.446;2023-04-19T05:42:11;12.23;;;6.78;;
78561;SDS011;68963;52.138;5.446;2023-04-19T05:44:37;12.70;;;6.47;;
78561;SDS011;68963;52.138;5.446;2023-04-19T05:47:04;13.32;;;6.88;;
78561;SDS011;68963;52.138;5.446;2023-04-19T05:49:30;12.75;;;6.85;;
78561;SDS011;68963;52.138;5.446;2023-04-19T05:51:57;13.57;;;6.63;;
78561;SDS011;68963;52.138;5.446;2023-04-19T05:54:23;13.32;;;6.63;;
78561;SDS011;68963;52.138;5.446;2023-04-19T05:56:49;14.25;;;6.80;;
78561;SDS011;68963;52.138;5.446;2023-04-19T05:59:16;12.63;;;6.07;;
78561;SDS011;68963;52.138;5.446;2023-04-19T06:01:43;14.02;;;6.35;;
78561;SDS011;68963;52.138;5.446;2023-04-19T06:04:10;13.15;;;6.35;;
78561;SDS011;68963;52.138;5.446;2023-04-19T06:06:37;12.82;;;6.40;;
78561;SDS011;68963;52.138;5.446;2023-04-19T06:09:03;11.68;;;6.18;;
78561;SDS011;68963;52.138;5.446;2023-04-19T06:11:30;12.48;;;6.00;;
78561;SDS011;68963;52.138;5.446;2023-04-19T06:14:08;12.00;;;5.80;;
78561;SDS011;68963;52.138;5.446;2023-04-19T06:16:35;10.10;;;5.60;;
78561;SDS011;68963;52.138;5.446;2023-04-19T06:19:02;11.07;;;5.63;;
78561;SDS011;68963;52.138;5.446;2023-04-19T06:21:29;11.02;;;5.78;;
78561;SDS011;68963;52.138;5.446;2023-04-19T06:23:56;10.88;;;5.72;;
78561;SDS011;68963;52.138;5.446;2023-04-19T06:26:23;9.95;;;5.53;;
78561;SDS011;68963;52.138;5.446;2023-04-19T06:28:50;11.02;;;5.20;;
78561;SDS011;68963;52.138;5.446;2023-04-19T06:31:16;10.13;;;5.53;;
78561;SDS011;68963;52.138;5.446;2023-04-19T06:33:43;11.23;;;4.88;;
78561;SDS011;68963;52.138;5.446;2023-04-19T06:36:09;9.45;;;5.32;;
78561;SDS011;68963;52.138;5.446;2023-04-19T06:38:36;10.73;;;4.95;;
78561;SDS011;68963;52.138;5.446;2023-04-19T06:41:03;9.60;;;4.32;;
78561;SDS011;68963;52.138;5.446;2023-04-19T06:43:30;8.38;;;4.65;;
78561;SDS011;68963;52.138;5.446;2023-04-19T06:45:57;9.07;;;4.60;;
78561;SDS011;68963;52.138;5.446;2023-04-19T06:48:24;9.52;;;4.90;;
78561;SDS011;68963;52.138;5.446;2023-04-19T06:50:51;9.63;;;4.45;;
78561;SDS011;68963;52.138;5.446;2023-04-19T06:53:18;9.43;;;4.45;;
78561;SDS011;68963;52.138;5.446;2023-04-19T06:55:45;9.82;;;4.38;;
78561;SDS011;68963;52.138;5.446;2023-04-19T06:58:11;9.57;;;4.45;;
78561;SDS011;68963;52.138;5.446;2023-04-19T07:00:38;9.43;;;4.57;;
78561;SDS011;68963;52.138;5.446;2023-04-19T07:03:04;8.05;;;4.07;;
78561;SDS011;68963;52.138;5.446;2023-04-19T07:05:31;9.32;;;4.55;;
78561;SDS011;68963;52.138;5.446;2023-04-19T07:07:58;10.07;;;4.30;;
78561;SDS011;68963;52.138;5.446;2023-04-19T07:10:24;8.35;;;4.13;;
78561;SDS011;68963;52.138;5.446;2023-04-19T07:12:50;7.45;;;4.13;;
78561;SDS011;68963;52.138;5.446;2023-04-19T07:15:17;7.97;;;3.60;;
78561;SDS011;68963;52.138;5.446;2023-04-19T07:17:43;8.25;;;3.80;;
78561;SDS011;68963;52.138;5.446;2023-04-19T07:20:10;7.65;;;3.90;;
78561;SDS011;68963;52.138;5.446;2023-04-19T07:22:37;9.20;;;4.10;;
78561;SDS011;68963;52.138;5.446;2023-04-19T07:25:03;9.05;;;3.55;;
78561;SDS011;68963;52.138;5.446;2023-04-19T07:27:30;7.63;;;3.90;;
78561;SDS011;68963;52.138;5.446;2023-04-19T07:29:56;7.28;;;3.83;;
78561;SDS011;68963;52.138;5.446;2023-04-19T07:32:23;7.00;;;3.83;;
78561;SDS011;68963;52.138;5.446;2023-04-19T07:34:50;8.57;;;3.58;;
78561;SDS011;68963;52.138;5.446;2023-04-19T07:37:16;8.05;;;4.10;;
78561;SDS011;68963;52.138;5.446;2023-04-19T07:39:43;8.50;;;3.85;;
78561;SDS011;68963;52.138;5.446;2023-04-19T07:42:09;7.75;;;3.70;;
78561;SDS011;68963;52.138;5.446;2023-04-19T07:44:36;8.10;;;3.60;;
78561;SDS011;68963;52.138;5.446;2023-04-19T07:47:03;7.65;;;3.75;;
78561;SDS011;68963;52.138;5.446;2023-04-19T07:49:31;8.30;;;4.00;;
78561;SDS011;68963;52.138;5.446;2023-04-19T07:54:27;7.13;;;3.40;;
78561;SDS011;68963;52.138;5.446;2023-04-19T07:56:54;10.50;;;3.20;;
78561;SDS011;68963;52.138;5.446;2023-04-19T07:59:20;8.27;;;3.63;;
78561;SDS011;68963;52.138;5.446;2023-04-19T08:01:47;6.65;;;3.35;;
78561;SDS011;68963;52.138;5.446;2023-04-19T08:04:14;6.97;;;3.17;;
78561;SDS011;68963;52.138;5.446;2023-04-19T08:06:44;8.23;;;3.00;;
78561;SDS011;68963;52.138;5.446;2023-04-19T08:09:10;6.40;;;3.22;;
78561;SDS011;68963;52.138;5.446;2023-04-19T08:11:37;6.43;;;3.25;;
78561;SDS011;68963;52.138;5.446;2023-04-19T08:14:03;8.25;;;3.22;;
78561;SDS011;68963;52.138;5.446;2023-04-19T08:16:47;7.82;;;3.47;;
78561;SDS011;68963;52.138;5.446;2023-04-19T08:19:16;6.70;;;3.15;;
78561;SDS011;68963;52.138;5.446;2023-04-19T08:21:43;7.97;;;3.13;;
78561;SDS011;68963;52.138;5.446;2023-04-19T08:24:09;8.98;;;2.63;;
78561;SDS011;68963;52.138;5.446;2023-04-19T08:26:36;6.40;;;2.67;;
78561;SDS011;68963;52.138;5.446;2023-04-19T08:29:04;6.28;;;2.80;;
78561;SDS011;68963;52.138;5.446;2023-04-19T08:31:30;6.50;;;3.08;;
78561;SDS011;68963;52.138;5.446;2023-04-19T08:33:57;7.95;;;2.75;;
78561;SDS011;68963;52.138;5.446;2023-04-19T08:36:25;4.97;;;2.53;;
78561;SDS011;68963;52.138;5.446;2023-04-19T08:39:08;5.72;;;2.55;;
78561;SDS011;68963;52.138;5.446;2023-04-19T08:41:54;6.68;;;2.30;;
78561;SDS011;68963;52.138;5.446;2023-04-19T08:44:34;6.22;;;2.33;;
78561;SDS011;68963;52.138;5.446;2023-04-19T08:47:24;5.68;;;2.28;;
78561;SDS011;68963;52.138;5.446;2023-04-19T08:49:59;5.53;;;1.80;;
78561;SDS011;68963;52.138;5.446;2023-04-19T08:52:46;5.13;;;2.10;;
78561;SDS011;68963;52.138;5.446;2023-04-19T08:55:24;4.05;;;1.70;;
78561;SDS011;68963;52.138;5.446;2023-04-19T08:57:51;5.03;;;1.70;;
78561;SDS011;68963;52.138;5.446;2023-04-19T09:00:17;6.32;;;1.80;;
78561;SDS011;68963;52.138;5.446;2023-04-19T09:02:45;4.68;;;1.90;;
78561;SDS011;68963;52.138;5.446;2023-04-19T09:05:14;5.15;;;1.80;;
78561;SDS011;68963;52.138;5.446;2023-04-19T09:07:43;5.53;;;1.60;;
78561;SDS011;68963;52.138;5.446;2023-04-19T09:10:12;4.07;;;1.58;;
78561;SDS011;68963;52.138;5.446;2023-04-19T09:12:41;4.03;;;1.50;;
78561;SDS011;68963;52.138;5.446;2023-04-19T09:15:08;3.38;;;1.27;;
78561;SDS011;68963;52.138;5.446;2023-04-19T09:17:36;4.03;;;1.55;;
78561;SDS011;68963;52.138;5.446;2023-04-19T09:20:04;4.13;;;1.75;;
78561;SDS011;68963;52.138;5.446;2023-04-19T09:22:32;4.63;;;1.90;;
78561;SDS011;68963;52.138;5.446;2023-04-19T09:24:59;4.38;;;1.60;;
78561;SDS011;68963;52.138;5.446;2023-04-19T09:27:30;3.78;;;1.33;;
78561;SDS011;68963;52.138;5.446;2023-04-19T09:29:59;4.72;;;1.83;;
78561;SDS011;68963;52.138;5.446;2023-04-19T09:32:26;5.50;;;1.70;;
78561;SDS011;68963;52.138;5.446;2023-04-19T09:34:55;5.13;;;1.88;;
78561;SDS011;68963;52.138;5.446;2023-04-19T09:37:25;6.05;;;1.98;;
78561;SDS011;68963;52.138;5.446;2023-04-19T09:39:55;4.97;;;1.77;;
78561;SDS011;68963;52.138;5.446;2023-04-19T09:42:22;4.85;;;2.00;;
78561;SDS011;68963;52.138;5.446;2023-04-19T09:45:08;6.25;;;2.30;;
78561;SDS011;68963;52.138;5.446;2023-04-19T09:48:02;7.85;;;2.70;;
78561;SDS011;68963;52.138;5.446;2023-04-19T09:50:30;4.88;;;1.80;;
78561;SDS011;68963;52.138;5.446;2023-04-19T09:52:58;5.75;;;2.03;;
78561;SDS011;68963;52.138;5.446;2023-04-19T09:55:25;5.65;;;2.22;;
78561;SDS011;68963;52.138;5.446;2023-04-19T09:57:55;4.90;;;1.83;;
78561;SDS011;68963;52.138;5.446;2023-04-19T10:00:22;5.93;;;1.95;;
78561;SDS011;68963;52.138;5.446;2023-04-19T10:02:53;4.97;;;2.00;;
78561;SDS011;68963;52.138;5.446;2023-04-19T10:05:23;6.20;;;2.10;;
78561;SDS011;68963;52.138;5.446;2023-04-19T10:07:51;5.60;;;2.17;;
78561;SDS011;68963;52.138;5.446;2023-04-19T10:10:24;4.78;;;1.88;;
78561;SDS011;68963;52.138;5.446;2023-04-19T10:13:10;5.53;;;2.00;;
78561;SDS011;68963;52.138;5.446;2023-04-19T10:15:46;4.40;;;1.88;;
78561;SDS011;68963;52.138;5.446;2023-04-19T10:18:22;4.25;;;1.80;;
78561;SDS011;68963;52.138;5.446;2023-04-19T10:20:54;5.35;;;1.90;;
78561;SDS011;68963;52.138;5.446;2023-04-19T10:23:27;5.10;;;2.00;;
78561;SDS011;68963;52.138;5.446;2023-04-19T10:25:54;4.60;;;1.67;;
78561;SDS011;68963;52.138;5.446;2023-04-19T10:28:23;4.65;;;1.40;;
78561;SDS011;68963;52.138;5.446;2023-04-19T10:30:53;6.13;;;2.13;;
78561;SDS011;68963;52.138;5.446;2023-04-19T10:33:26;4.28;;;2.00;;
78561;SDS011;68963;52.138;5.446;2023-04-19T10:35:55;5.18;;;1.80;;
78561;SDS011;68963;52.138;5.446;2023-04-19T10:41:15;8.27;;;1.80;;
78561;SDS011;68963;52.138;5.446;2023-04-19T10:48:52;4.70;;;1.90;;
78561;SDS011;68963;52.138;5.446;2023-04-19T10:51:21;5.22;;;1.85;;
78561;SDS011;68963;52.138;5.446;2023-04-19T10:57:03;4.68;;;1.90;;
78561;SDS011;68963;52.138;5.446;2023-04-19T10:59:31;4.35;;;1.73;;
78561;SDS011;68963;52.138;5.446;2023-04-19T11:06:58;7.28;;;2.03;;
78561;SDS011;68963;52.138;5.446;2023-04-19T11:09:27;5.43;;;2.10;;
78561;SDS011;68963;52.138;5.446;2023-04-19T11:11:57;4.20;;;1.88;;
78561;SDS011;68963;52.138;5.446;2023-04-19T11:14:27;4.97;;;2.15;;
78561;SDS011;68963;52.138;5.446;2023-04-19T11:16:57;5.82;;;2.17;;
78561;SDS011;68963;52.138;5.446;2023-04-19T11:19:23;6.55;;;2.55;;
78561;SDS011;68963;52.138;5.446;2023-04-19T11:21:50;5.40;;;2.25;;
78561;SDS011;68963;52.138;5.446;2023-04-19T11:24:16;5.47;;;2.60;;
78561;SDS011;68963;52.138;5.446;2023-04-19T11:26:46;6.55;;;2.50;;
78561;SDS011;68963;52.138;5.446;2023-04-19T11:29:18;5.13;;;2.35;;
78561;SDS011;68963;52.138;5.446;2023-04-19T11:31:47;5.47;;;2.60;;
78561;SDS011;68963;52.138;5.446;2023-04-19T11:34:13;4.90;;;2.10;;
78561;SDS011;68963;52.138;5.446;2023-04-19T11:36:50;4.95;;;2.20;;
78561;SDS011;68963;52.138;5.446;2023-04-19T11:39:17;6.90;;;2.30;;
78561;SDS011;68963;52.138;5.446;2023-04-19T11:41:44;5.68;;;2.30;;
78561;SDS011;68963;52.138;5.446;2023-04-19T11:46:40;8.00;;;2.40;;
78561;SDS011;68963;52.138;5.446;2023-04-19T11:49:07;8.38;;;4.05;;
78561;SDS011;68963;52.138;5.446;2023-04-19T11:51:34;5.20;;;2.42;;
78561;SDS011;68963;52.138;5.446;2023-04-19T11:54:00;6.07;;;2.40;;
78561;SDS011;68963;52.138;5.446;2023-04-19T11:56:27;6.95;;;2.47;;
78561;SDS011;68963;52.138;5.446;2023-04-19T11:58:55;7.13;;;2.60;;
78561;SDS011;68963;52.138;5.446;2023-04-19T12:01:22;6.88;;;2.60;;
78561;SDS011;68963;52.138;5.446;2023-04-19T12:03:51;5.45;;;2.67;;
78561;SDS011;68963;52.138;5.446;2023-04-19T12:06:23;6.55;;;2.78;;
78561;SDS011;68963;52.138;5.446;2023-04-19T12:08:54;5.97;;;2.70;;
78561;SDS011;68963;52.138;5.446;2023-04-19T12:11:22;7.47;;;3.03;;
78561;SDS011;68963;52.138;5.446;2023-04-19T12:14:09;6.63;;;2.78;;
78561;SDS011;68963;52.138;5.446;2023-04-19T12:16:37;4.93;;;2.28;;
78561;SDS011;68963;52.138;5.446;2023-04-19T12:19:10;5.82;;;2.67;;
78561;SDS011;68963;52.138;5.446;2023-04-19T12:21:40;5.75;;;2.80;;
78561;SDS011;68963;52.138;5.446;2023-04-19T12:24:07;7.70;;;2.50;;
78561;SDS011;68963;52.138;5.446;2023-04-19T12:26:34;5.93;;;2.63;;
78561;SDS011;68963;52.138;5.446;2023-04-19T12:29:01;6.47;;;3.00;;
78561;SDS011;68963;52.138;5.446;2023-04-19T12:31:31;5.63;;;2.80;;
78561;SDS011;68963;52.138;5.446;2023-04-19T12:33:58;7.63;;;2.97;;
78561;SDS011;68963;52.138;5.446;2023-04-19T12:36:25;7.82;;;3.00;;
78561;SDS011;68963;52.138;5.446;2023-04-19T12:38:51;5.88;;;3.05;;
78561;SDS011;68963;52.138;5.446;2023-04-19T12:41:18;7.68;;;3.20;;
78561;SDS011;68963;52.138;5.446;2023-04-19T12:43:44;6.38;;;3.20;;
78561;SDS011;68963;52.138;5.446;2023-04-19T12:46:11;7.63;;;3.30;;
78561;SDS011;68963;52.138;5.446;2023-04-19T12:48:37;8.05;;;3.10;;
78561;SDS011;68963;52.138;5.446;2023-04-19T12:51:04;5.47;;;2.60;;
78561;SDS011;68963;52.138;5.446;2023-04-19T12:53:31;7.97;;;3.10;;
78561;SDS011;68963;52.138;5.446;2023-04-19T12:55:58;7.55;;;2.88;;
78561;SDS011;68963;52.138;5.446;2023-04-19T12:58:24;8.02;;;3.20;;
78561;SDS011;68963;52.138;5.446;2023-04-19T13:00:53;8.27;;;3.13;;
78561;SDS011;68963;52.138;5.446;2023-04-19T13:03:19;6.72;;;3.03;;
78561;SDS011;68963;52.138;5.446;2023-04-19T13:05:46;6.25;;;2.80;;
78561;SDS011;68963;52.138;5.446;2023-04-19T13:08:14;8.02;;;2.90;;
78561;SDS011;68963;52.138;5.446;2023-04-19T13:10:40;5.47;;;2.85;;
78561;SDS011;68963;52.138;5.446;2023-04-19T13:13:07;6.70;;;2.75;;
78561;SDS011;68963;52.138;5.446;2023-04-19T13:15:33;8.18;;;2.90;;
78561;SDS011;68963;52.138;5.446;2023-04-19T13:18:00;8.27;;;2.72;;
78561;SDS011;68963;52.138;5.446;2023-04-19T13:20:27;5.47;;;2.60;;
78561;SDS011;68963;52.138;5.446;2023-04-19T13:22:54;6.22;;;2.55;;
78561;SDS011;68963;52.138;5.446;2023-04-19T13:25:20;7.35;;;3.00;;
78561;SDS011;68963;52.138;5.446;2023-04-19T13:27:47;6.72;;;2.78;;
78561;SDS011;68963;52.138;5.446;2023-04-19T13:30:14;5.95;;;3.00;;
78561;SDS011;68963;52.138;5.446;2023-04-19T13:32:40;6.55;;;3.13;;
78561;SDS011;68963;52.138;5.446;2023-04-19T13:35:07;5.82;;;2.70;;
78561;SDS011;68963;52.138;5.446;2023-04-19T13:37:34;6.72;;;2.85;;
78561;SDS011;68963;52.138;5.446;2023-04-19T13:40:00;5.95;;;3.05;;
78561;SDS011;68963;52.138;5.446;2023-04-19T13:42:44;6.15;;;2.88;;
78561;SDS011;68963;52.138;5.446;2023-04-19T13:45:10;6.35;;;2.75;;
78561;SDS011;68963;52.138;5.446;2023-04-19T13:47:37;5.20;;;2.55;;
78561;SDS011;68963;52.138;5.446;2023-04-19T13:50:04;5.07;;;2.45;;
78561;SDS011;68963;52.138;5.446;2023-04-19T13:52:30;6.72;;;2.90;;
78561;SDS011;68963;52.138;5.446;2023-04-19T13:54:57;6.93;;;2.70;;
78561;SDS011;68963;52.138;5.446;2023-04-19T13:57:23;5.65;;;2.53;;
78561;SDS011;68963;52.138;5.446;2023-04-19T13:59:50;6.53;;;2.53;;
78561;SDS011;68963;52.138;5.446;2023-04-19T14:02:17;4.80;;;2.50;;
78561;SDS011;68963;52.138;5.446;2023-04-19T14:04:43;5.38;;;2.30;;
78561;SDS011;68963;52.138;5.446;2023-04-19T14:07:10;6.15;;;2.45;;
78561;SDS011;68963;52.138;5.446;2023-04-19T14:09:37;5.70;;;2.45;;
78561;SDS011;68963;52.138;5.446;2023-04-19T14:12:03;5.22;;;2.63;;
78561;SDS011;68963;52.138;5.446;2023-04-19T14:14:30;7.50;;;2.33;;
78561;SDS011;68963;52.138;5.446;2023-04-19T14:16:57;6.47;;;2.55;;
78561;SDS011;68963;52.138;5.446;2023-04-19T14:19:24;5.55;;;2.50;;
78561;SDS011;68963;52.138;5.446;2023-04-19T14:21:50;6.03;;;2.60;;
78561;SDS011;68963;52.138;5.446;2023-04-19T14:24:17;6.97;;;3.00;;
78561;SDS011;68963;52.138;5.446;2023-04-19T14:26:43;5.50;;;2.42;;
78561;SDS011;68963;52.138;5.446;2023-04-19T14:29:10;5.97;;;2.70;;
78561;SDS011;68963;52.138;5.446;2023-04-19T14:31:37;5.03;;;2.55;;
78561;SDS011;68963;52.138;5.446;2023-04-19T14:34:03;5.47;;;2.65;;
78561;SDS011;68963;52.138;5.446;2023-04-19T14:36:30;5.47;;;2.05;;
78561;SDS011;68963;52.138;5.446;2023-04-19T14:38:56;5.50;;;2.63;;
78561;SDS011;68963;52.138;5.446;2023-04-19T14:41:23;5.43;;;2.30;;
78561;SDS011;68963;52.138;5.446;2023-04-19T14:43:50;8.00;;;2.42;;
78561;SDS011;68963;52.138;5.446;2023-04-19T14:46:17;6.60;;;2.75;;
78561;SDS011;68963;52.138;5.446;2023-04-19T14:48:43;6.15;;;2.85;;
78561;SDS011;68963;52.138;5.446;2023-04-19T14:51:10;5.47;;;2.20;;
78561;SDS011;68963;52.138;5.446;2023-04-19T14:53:36;5.75;;;2.05;;
78561;SDS011;68963;52.138;5.446;2023-04-19T14:56:03;5.63;;;2.35;;
78561;SDS011;68963;52.138;5.446;2023-04-19T14:58:30;5.95;;;2.50;;
78561;SDS011;68963;52.138;5.446;2023-04-19T15:00:57;6.72;;;2.70;;
78561;SDS011;68963;52.138;5.446;2023-04-19T15:03:24;5.18;;;2.53;;
78561;SDS011;68963;52.138;5.446;2023-04-19T15:05:51;5.15;;;2.60;;